Time;durP1;ratioP1;P1;durP2;ratioP2;P2;SDS_P1;SDS_P2;PMS_P1;PMS_P2;Temp;Humidity;BMP_temperature;BMP_pressure;BME280_temperature;BME280_humidity;BME280_pressure;Samples;Min_cycle;Max_cycle;Signal;HPM_P1;HPM_P2
2021/12/14 00:00:39;;;;;;;0.50;0.50;;;;;;;23.20;31.51;97587.38;5027718;28;20055;-29
2021/12/14 00:03:05;;;;;;;0.50;0.50;;;;;;;23.19;31.58;97583.03;5017174;28;20049;-27
2021/12/14 00:05:31;;;;;;;0.43;0.43;;;;;;;23.20;31.63;97585.63;5026123;28;20025;-31
2021/12/14 00:07:57;;;;;;;0.38;0.32;;;;;;;23.20;31.49;97588.25;5026413;28;20028;-31
2021/12/14 00:13:15;;;;;;;0.35;0.35;;;;;;;23.19;31.69;97586.50;5025518;28;20032;-30
2021/12/14 00:15:40;;;;;;;0.35;0.35;;;;;;;23.19;31.74;97586.50;5027208;28;20029;-30
2021/12/14 00:18:08;;;;;;;0.47;0.40;;;;;;;23.18;31.67;97584.78;5027419;28;20053;-32
2021/12/14 00:20:39;;;;;;;0.30;0.30;;;;;;;23.19;31.61;97588.28;5025150;28;20028;-34
2021/12/14 00:25:39;;;;;;;0.50;0.50;;;;;;;23.20;31.67;97584.75;5027134;28;20574;-28
2021/12/14 00:28:14;;;;;;;0.68;0.47;;;;;;;23.18;31.53;97582.19;5026539;28;20131;-29
2021/12/14 00:30:40;;;;;;;0.30;0.30;;;;;;;23.18;31.41;97587.41;5032315;28;20029;-29
2021/12/14 00:33:06;;;;;;;0.30;0.30;;;;;;;23.19;31.77;97588.28;5015272;28;20052;-29
2021/12/14 00:35:32;;;;;;;0.30;0.30;;;;;;;23.18;31.71;97594.41;5031619;28;20701;-30
2021/12/14 00:37:58;;;;;;;0.38;0.38;;;;;;;23.19;31.78;97594.34;5025898;28;20025;-27
2021/12/14 00:40:34;;;;;;;0.40;0.40;;;;;;;23.18;31.71;97592.63;5032228;28;20021;-27
2021/12/14 00:42:59;;;;;;;0.43;0.43;;;;;;;23.17;31.73;97588.31;5030738;28;20083;-27
2021/12/14 00:45:25;;;;;;;0.30;0.30;;;;;;;23.17;31.47;97588.31;5032364;28;20136;-28
2021/12/14 00:47:51;;;;;;;0.50;0.40;;;;;;;23.19;31.75;97589.13;5025248;28;20018;-30
2021/12/14 00:50:19;;;;;;;0.50;0.50;;;;;;;23.19;31.62;97599.56;5031211;28;20032;-29
2021/12/14 00:52:45;;;;;;;0.60;0.40;;;;;;;23.19;31.77;97596.13;5031052;28;20719;-28
2021/12/14 00:55:12;;;;;;;0.20;0.20;;;;;;;23.19;31.53;97601.34;5031836;28;20112;-28
2021/12/14 00:57:37;;;;;;;0.20;0.20;;;;;;;23.19;31.71;97596.13;5030705;28;20029;-31
2021/12/14 01:00:15;;;;;;;0.30;0.30;;;;;;;23.20;31.75;97603.06;5029282;28;20029;-31
2021/12/14 01:02:41;;;;;;;0.30;0.30;;;;;;;23.18;31.64;97600.47;5030322;28;20071;-29
2021/12/14 01:05:16;;;;;;;0.20;0.20;;;;;;;23.19;31.51;97596.97;5032983;28;20029;-29
2021/12/14 01:07:41;;;;;;;0.30;0.30;;;;;;;23.20;31.44;97603.06;5030411;28;20032;-32
2021/12/14 01:10:14;;;;;;;0.22;0.22;;;;;;;23.17;31.64;97603.13;5031923;28;20443;-30
2021/12/14 01:12:49;;;;;;;0.40;0.40;;;;;;;23.17;31.67;97614.47;5031203;28;20032;-31
2021/12/14 01:15:30;;;;;;;0.30;0.30;;;;;;;23.17;31.80;97617.06;5028168;28;20125;-30
2021/12/14 01:20:43;;;;;;;0.40;0.32;;;;;;;23.18;31.77;97628.41;5028524;28;20518;-30
2021/12/14 01:23:21;;;;;;;0.95;0.40;;;;;;;23.17;31.67;97624.91;5032247;28;20491;-28
2021/12/14 01:25:49;;;;;;;0.30;0.30;;;;;;;23.17;31.47;97619.69;5032445;28;20082;-31
2021/12/14 01:28:18;;;;;;;1.15;0.30;;;;;;;23.16;31.68;97623.22;5028434;28;20026;-28
2021/12/14 01:31:17;;;;;;;0.30;0.30;;;;;;;23.16;31.63;97628.44;5029033;28;20044;-31
2021/12/14 01:33:44;;;;;;;0.40;0.40;;;;;;;23.15;31.76;97629.31;5029328;28;20059;-33
2021/12/14 01:36:24;;;;;;;0.30;0.30;;;;;;;23.17;31.63;97635.38;5030927;28;20028;-28
2021/12/14 01:39:08;;;;;;;0.32;0.32;;;;;;;23.16;31.46;97633.69;5031585;28;20550;-28
2021/12/14 01:41:33;;;;;;;0.30;0.30;;;;;;;23.16;31.42;97625.84;5028245;28;20025;-30
2021/12/14 01:43:59;;;;;;;0.35;0.35;;;;;;;23.17;31.56;97630.16;4996892;28;20491;-31
2021/12/14 01:46:27;;;;;;;0.30;0.30;;;;;;;23.18;31.56;97633.63;5031107;28;20025;-31
2021/12/14 01:48:53;;;;;;;0.35;0.35;;;;;;;23.18;31.68;97641.47;5029481;28;20244;-32
2021/12/14 01:51:18;;;;;;;0.40;0.40;;;;;;;23.16;31.50;97638.91;5030195;28;20032;-29
2021/12/14 01:53:45;;;;;;;0.32;0.32;;;;;;;23.16;31.53;97641.53;5029701;28;22569;-30
2021/12/14 01:56:12;;;;;;;0.30;0.30;;;;;;;23.18;31.62;97644.94;5022956;28;20033;-32
2021/12/14 01:58:45;;;;;;;0.45;0.32;;;;;;;23.17;31.45;97642.34;5028547;28;20096;-27
2021/12/14 02:01:16;;;;;;;0.45;0.40;;;;;;;23.18;31.51;97639.69;5029860;28;20036;-28
2021/12/14 02:03:50;;;;;;;0.20;0.20;;;;;;;23.17;31.73;97640.63;5029647;28;20067;-30
2021/12/14 02:06:19;;;;;;;0.30;0.30;;;;;;;23.18;31.58;97637.09;5030265;28;20033;-29
2021/12/14 02:08:44;;;;;;;0.20;0.20;;;;;;;23.17;31.71;97635.38;5028752;28;20818;-27
2021/12/14 02:11:10;;;;;;;0.30;0.30;;;;;;;23.17;31.75;97624.91;5027627;28;20045;-30
2021/12/14 02:13:40;;;;;;;0.45;0.40;;;;;;;23.18;31.50;97625.78;5030012;28;20029;-28
2021/12/14 02:16:06;;;;;;;0.52;0.28;;;;;;;23.18;31.73;97631.84;5028514;28;20555;-30
2021/12/14 02:18:31;;;;;;;0.30;0.20;;;;;;;23.17;31.49;97621.44;5027719;28;20037;-29
2021/12/14 02:21:15;;;;;;;0.30;0.30;;;;;;;23.17;31.53;97624.91;5029651;28;20299;-28
2021/12/14 02:23:43;;;;;;;0.20;0.20;;;;;;;23.17;31.65;97627.53;5027479;28;20033;-28
2021/12/14 02:26:11;;;;;;;0.22;0.22;;;;;;;23.17;31.63;97626.66;5012756;28;20029;-33
2021/12/14 02:28:37;;;;;;;0.25;0.25;;;;;;;23.18;31.65;97631.84;5030031;28;20025;-30
2021/12/14 02:31:03;;;;;;;0.20;0.20;;;;;;;23.18;31.34;97638.88;5027134;28;20491;-31
2021/12/14 02:33:32;;;;;;;0.22;0.22;;;;;;;23.17;31.50;97630.16;5028396;28;20032;-29
2021/12/14 02:35:58;;;;;;;0.40;0.40;;;;;;;23.18;31.41;97634.47;5031411;28;20059;-27
2021/12/14 02:38:24;;;;;;;0.30;0.30;;;;;;;23.17;31.51;97630.16;5030439;28;20068;-28
2021/12/14 02:40:57;;;;;;;0.20;0.20;;;;;;;23.17;31.43;97627.53;5029554;28;20035;-29
2021/12/14 02:43:38;;;;;;;0.20;0.20;;;;;;;23.17;31.33;97630.16;5028269;28;20667;-30
2021/12/14 02:46:23;;;;;;;0.13;0.13;;;;;;;23.17;31.51;97635.38;5027595;28;20114;-28
2021/12/14 02:48:55;;;;;;;0.32;0.32;;;;;;;23.16;31.46;97628.44;5030213;28;20025;-31
2021/12/14 02:51:23;;;;;;;0.22;0.22;;;;;;;23.16;31.43;97628.44;5028911;28;20110;-30
2021/12/14 02:53:50;;;;;;;0.40;0.38;;;;;;;23.17;31.50;97624.06;5028871;28;20389;-30
2021/12/14 02:56:18;;;;;;;0.22;0.22;;;;;;;23.16;31.36;97628.44;5027677;28;20154;-28
2021/12/14 02:58:43;;;;;;;0.28;0.28;;;;;;;23.16;31.51;97628.44;5029435;28;20231;-29
2021/12/14 03:01:09;;;;;;;0.30;0.30;;;;;;;23.17;31.56;97629.28;5028570;28;20037;-31
2021/12/14 03:03:35;;;;;;;0.30;0.30;;;;;;;23.16;31.46;97631.06;5029005;28;20454;-30
2021/12/14 03:06:01;;;;;;;0.30;0.30;;;;;;;23.16;31.53;97628.44;5037723;28;20028;-30
2021/12/14 03:08:27;;;;;;;0.20;0.20;;;;;;;23.16;31.45;97606.66;5028187;28;20479;-29
2021/12/14 03:11:10;;;;;;;0.30;0.30;;;;;;;23.16;31.60;97609.28;5028221;28;20318;-30
2021/12/14 03:13:44;;;;;;;0.30;0.30;;;;;;;23.16;31.50;97611.88;5028221;28;20025;-30
2021/12/14 03:16:19;;;;;;;0.20;0.20;;;;;;;23.15;31.35;97604.94;5024318;28;20034;-29
2021/12/14 03:18:47;;;;;;;0.38;0.38;;;;;;;23.16;31.45;97612.75;5028447;28;20027;-30
2021/12/14 03:21:15;;;;;;;0.30;0.30;;;;;;;23.16;31.52;97607.53;5025949;28;20026;-26
2021/12/14 03:23:49;;;;;;;0.30;0.30;;;;;;;23.16;31.43;97610.16;5030646;28;20108;-29
2021/12/14 03:26:15;;;;;;;0.20;0.20;;;;;;;23.15;31.56;97621.47;5026855;28;20537;-28
2021/12/14 03:28:45;;;;;;;0.20;0.20;;;;;;;23.15;31.62;97629.31;5029127;28;20025;-28
2021/12/14 03:31:10;;;;;;;0.13;0.13;;;;;;;23.16;31.51;97627.56;5026091;28;20063;-31
2021/12/14 03:33:39;;;;;;;0.28;0.28;;;;;;;23.15;31.50;97626.72;5030471;28;20476;-28
2021/12/14 03:36:08;;;;;;;0.20;0.20;;;;;;;23.14;31.46;97624.16;5034988;28;20021;-31
2021/12/14 03:38:38;;;;;;;0.20;0.20;;;;;;;23.15;31.44;97631.94;5028856;28;20076;-30
2021/12/14 03:41:13;;;;;;;0.20;0.20;;;;;;;23.14;31.57;97619.78;5028164;28;20914;-31
2021/12/14 03:43:42;;;;;;;0.20;0.20;;;;;;;23.15;31.45;97620.66;5028130;28;20140;-29
2021/12/14 03:46:07;;;;;;;0.10;0.10;;;;;;;23.15;31.29;97620.66;5025929;28;20104;-29
2021/12/14 03:48:33;;;;;;;0.20;0.20;;;;;;;23.14;31.61;97625.00;5029867;28;20016;-29
2021/12/14 03:50:59;;;;;;;0.20;0.20;;;;;;;23.13;31.36;97618.06;5025964;28;20814;-30
2021/12/14 03:53:24;;;;;;;0.25;0.25;;;;;;;23.14;31.40;97634.63;5014657;28;20076;-31
2021/12/14 03:55:53;;;;;;;0.20;0.20;;;;;;;23.14;31.38;97635.47;5028225;28;20116;-29
2021/12/14 03:58:22;;;;;;;0.20;0.20;;;;;;;23.14;31.29;97634.63;5028912;28;20104;-30
2021/12/14 04:00:53;;;;;;;0.20;0.20;;;;;;;23.13;31.32;97644.22;5027088;28;20030;-29
2021/12/14 04:03:19;;;;;;;0.20;0.20;;;;;;;23.13;31.35;97644.22;5029758;28;20261;-28
2021/12/14 04:05:45;;;;;;;0.30;0.30;;;;;;;23.14;31.64;97650.31;5033476;28;20099;-31
2021/12/14 04:08:10;;;;;;;0.20;0.20;;;;;;;23.13;31.57;97649.44;5029750;28;20032;-30
2021/12/14 04:10:37;;;;;;;0.20;0.20;;;;;;;23.12;31.54;97642.50;5033753;28;20582;-27
2021/12/14 04:13:06;;;;;;;0.20;0.20;;;;;;;23.13;31.30;97643.34;5030144;28;20087;-29
2021/12/14 04:15:31;;;;;;;0.10;0.10;;;;;;;23.11;31.50;97630.34;5034205;28;20021;-32
2021/12/14 04:17:57;;;;;;;0.30;0.30;;;;;;;23.12;31.42;97620.72;5032263;28;20368;-28
2021/12/14 04:20:33;;;;;;;0.10;0.10;;;;;;;23.12;31.51;97610.25;5029727;28;20090;-30
2021/12/14 04:22:59;;;;;;;1.33;0.30;;;;;;;23.11;31.61;97612.03;5033645;28;20021;-30
2021/12/14 04:25:30;;;;;;;0.20;0.20;;;;;;;23.10;31.48;97607.69;5033473;28;20079;-29
2021/12/14 04:27:56;;;;;;;0.20;0.20;;;;;;;23.11;31.61;97598.97;5034732;28;20074;-32
2021/12/14 04:30:22;;;;;;;0.30;0.30;;;;;;;23.11;31.50;97601.59;5032031;28;20517;-27
2021/12/14 04:32:49;;;;;;;0.20;0.20;;;;;;;23.11;31.52;97598.97;5031983;28;20055;-30
2021/12/14 04:35:15;;;;;;;0.10;0.10;;;;;;;23.11;31.57;97606.81;5036128;28;20468;-30
2021/12/14 04:37:42;;;;;;;0.20;0.20;;;;;;;23.11;31.27;97609.44;5029013;28;20025;-31
2021/12/14 04:53:45;;;;;;;0.10;0.10;;;;;;;23.09;31.40;97608.59;5032227;28;20036;-29
2021/12/14 04:56:19;;;;;;;0.10;0.10;;;;;;;23.09;31.34;97598.13;5030399;28;20029;-35
2021/12/14 04:59:12;;;;;;;0.20;0.20;;;;;;;23.08;31.56;97594.66;5018960;28;20091;-28
2021/12/14 05:01:42;;;;;;;0.10;0.10;;;;;;;23.07;31.33;97592.94;5029328;28;20103;-31
2021/12/14 05:04:10;;;;;;;0.20;0.20;;;;;;;23.08;31.34;97588.59;5032924;28;20033;-31
2021/12/14 05:07:02;;;;;;;0.20;0.20;;;;;;;23.07;31.62;97586.88;5028158;28;20135;-30
2021/12/14 05:09:32;;;;;;;0.20;0.20;;;;;;;23.07;31.59;97589.50;5030890;28;20028;-32
2021/12/14 05:12:08;;;;;;;0.10;0.10;;;;;;;23.07;31.51;97587.72;5031697;28;20037;-31
2021/12/14 05:14:34;;;;;;;0.30;0.30;;;;;;;23.07;31.63;97574.66;5031654;28;20044;-30
2021/12/14 05:17:03;;;;;;;0.30;0.30;;;;;;;23.06;31.52;97580.78;5032950;28;20025;-29
2021/12/14 05:19:33;;;;;;;0.30;0.30;;;;;;;23.08;31.58;97575.53;5031476;28;20056;-30
2021/12/14 05:22:11;;;;;;;0.20;0.20;;;;;;;23.07;31.31;97573.81;5032742;28;20519;-27
2021/12/14 05:24:38;;;;;;;0.10;0.10;;;;;;;23.07;31.31;97568.59;5026976;28;20029;-34
2021/12/14 05:27:05;;;;;;;0.20;0.20;;;;;;;23.08;31.27;97580.75;5027665;28;20116;-30
2021/12/14 05:29:30;;;;;;;0.10;0.10;;;;;;;23.08;31.21;97588.59;5030740;28;20025;-31
2021/12/14 05:31:56;;;;;;;0.17;0.17;;;;;;;23.07;31.31;97592.13;5031148;28;20028;-25
2021/12/14 05:34:23;;;;;;;0.20;0.20;;;;;;;23.08;31.60;97583.38;5029161;28;20086;-27
2021/12/14 05:36:49;;;;;;;0.10;0.10;;;;;;;23.08;31.46;97584.19;5030809;28;20031;-30
2021/12/14 05:44:39;;;;;;;0.10;0.10;;;;;;;23.07;31.34;97571.19;5028976;28;20993;-28
2021/12/14 05:47:10;;;;;;;0.30;0.30;;;;;;;23.08;31.27;97565.06;5015530;28;20068;-27
2021/12/14 05:49:36;;;;;;;0.20;0.20;;;;;;;23.07;31.63;97561.56;5030469;28;20060;-29
2021/12/14 05:52:09;;;;;;;1.10;0.20;;;;;;;23.07;31.57;97574.66;5028421;28;20025;-30
2021/12/14 05:54:35;;;;;;;0.10;0.10;;;;;;;23.07;31.48;97565.97;5029067;28;20033;-28
2021/12/14 05:57:02;;;;;;;0.10;0.10;;;;;;;23.07;31.53;97568.59;5030188;28;20372;-30
2021/12/14 05:59:29;;;;;;;0.20;0.10;;;;;;;23.07;31.58;97581.66;5030356;28;20114;-28
2021/12/14 06:01:55;;;;;;;0.20;0.20;;;;;;;23.07;31.46;97582.50;5029012;28;20029;-28
2021/12/14 06:04:21;;;;;;;0.10;0.10;;;;;;;23.07;31.28;97586.88;5029866;28;20075;-30
2021/12/14 06:06:54;;;;;;;0.20;0.20;;;;;;;23.06;31.32;97579.91;5027435;28;20124;-31
2021/12/14 06:09:30;;;;;;;0.05;0.05;;;;;;;23.07;31.35;97594.72;5030588;28;20088;-28
2021/12/14 06:12:01;;;;;;;0.10;0.10;;;;;;;23.06;31.56;97579.91;5023541;28;20033;-30
2021/12/14 06:14:28;;;;;;;0.20;0.20;;;;;;;23.07;31.31;97576.44;5009945;28;20033;-33
2021/12/14 06:16:56;;;;;;;0.10;0.10;;;;;;;23.06;31.27;97574.69;5029705;28;20025;-30
2021/12/14 06:19:26;;;;;;;0.10;0.10;;;;;;;23.06;31.47;97566.84;5029185;28;20017;-29
2021/12/14 06:21:58;;;;;;;0.28;0.15;;;;;;;23.07;31.52;97560.75;5029218;28;20167;-27
2021/12/14 06:24:25;;;;;;;0.30;0.30;;;;;;;23.06;31.23;97575.56;5028302;28;20043;-29
2021/12/14 06:26:52;;;;;;;0.43;0.20;;;;;;;23.06;31.30;97585.16;5026830;28;20071;-28
2021/12/14 06:29:20;;;;;;;0.20;0.20;;;;;;;23.06;31.51;97579.91;5027393;28;20158;-32
2021/12/14 06:31:45;;;;;;;0.15;0.15;;;;;;;23.05;31.22;97572.97;5027340;28;20037;-27
2021/12/14 06:34:22;;;;;;;0.20;0.20;;;;;;;23.04;31.31;97568.66;5030541;28;20865;-28
2021/12/14 06:36:52;;;;;;;0.30;0.30;;;;;;;23.05;31.29;97567.75;5025713;28;20591;-30
2021/12/14 06:39:18;;;;;;;0.30;0.30;;;;;;;23.04;31.42;97566.06;5029630;28;20147;-29
2021/12/14 06:41:43;;;;;;;0.32;0.32;;;;;;;23.05;31.19;97571.25;5027926;28;20624;-27
2021/12/14 06:44:08;;;;;;;0.30;0.30;;;;;;;23.05;31.52;97573.84;5028260;28;20044;-31
2021/12/14 06:46:38;;;;;;;0.22;0.20;;;;;;;23.06;31.49;97574.69;5028368;28;20032;-28
2021/12/14 06:49:09;;;;;;;3.38;1.42;;;;;;;23.05;31.28;97567.75;5029145;28;20102;-31
2021/12/14 06:51:46;;;;;;;5.45;4.18;;;;;;;23.04;31.27;97569.53;5027170;28;20107;-31
2021/12/14 06:54:15;;;;;;;1.95;1.67;;;;;;;23.03;31.26;97565.19;5027060;28;20032;-29
2021/12/14 06:56:40;;;;;;;1.98;1.35;;;;;;;23.04;31.30;97558.22;5026916;28;20596;-29
2021/12/14 06:59:08;;;;;;;1.23;1.00;;;;;;;23.03;31.17;97541.66;5028306;28;20025;-31
2021/12/14 07:01:35;;;;;;;1.70;1.30;;;;;;;23.04;31.29;97552.97;5027852;28;20087;-27
2021/12/14 07:04:09;;;;;;;1.10;1.00;;;;;;;23.03;31.32;97546.88;5028945;28;20025;-30
2021/12/14 07:06:40;;;;;;;1.92;0.93;;;;;;;23.02;31.39;97532.09;5027422;28;20022;-31
2021/12/14 07:09:10;;;;;;;1.70;0.98;;;;;;;23.04;31.12;97529.44;5027376;28;20146;-30
2021/12/14 07:11:36;;;;;;;1.65;0.90;;;;;;;23.03;31.29;97518.13;5027878;28;20040;-27
2021/12/14 07:14:03;;;;;;;1.70;1.20;;;;;;;23.04;31.31;97526.84;5027011;28;20025;-26
2021/12/14 07:16:33;;;;;;;0.82;0.77;;;;;;;23.03;31.28;97527.75;5027969;28;20160;-28
2021/12/14 07:19:02;;;;;;;1.35;0.90;;;;;;;23.02;31.25;97536.47;5030625;28;20025;-32
2021/12/14 07:21:40;;;;;;;1.17;0.82;;;;;;;23.02;31.30;97539.94;5028354;28;20881;-30
2021/12/14 07:24:20;;;;;;;1.35;0.90;;;;;;;23.02;31.22;97526.88;5027168;28;20356;-27
2021/12/14 07:26:46;;;;;;;0.68;0.68;;;;;;;23.01;31.40;97508.63;5027448;28;20029;-31
2021/12/14 07:29:11;;;;;;;1.27;0.95;;;;;;;23.03;31.28;97499.00;5024803;28;20033;-31
2021/12/14 07:31:41;;;;;;;1.80;0.80;;;;;;;23.02;31.30;97505.09;5017646;28;20026;-32
2021/12/14 07:34:06;;;;;;;1.67;1.20;;;;;;;23.02;31.28;97505.09;5026074;28;20037;-31
2021/12/14 07:36:33;;;;;;;0.98;0.85;;;;;;;23.02;31.42;97531.25;5027400;28;20029;-30
2021/12/14 07:39:01;;;;;;;1.23;0.90;;;;;;;23.02;31.20;97541.69;5027396;28;20021;-30
2021/12/14 07:41:45;;;;;;;1.20;0.77;;;;;;;23.02;31.27;97552.16;5026140;28;20056;-29
2021/12/14 07:44:18;;;;;;;0.63;0.60;;;;;;;23.02;31.25;97557.38;5027227;28;20708;-28
2021/12/14 07:46:53;;;;;;;0.82;0.63;;;;;;;23.02;31.41;97557.38;5027222;28;20021;-27
2021/12/14 07:49:34;;;;;;;0.98;0.60;;;;;;;23.02;31.47;97557.38;5027579;28;20045;-29
2021/12/14 07:52:11;;;;;;;1.13;0.80;;;;;;;23.02;31.43;97562.59;5026509;28;20033;-30
2021/12/14 07:54:42;;;;;;;0.60;0.60;;;;;;;23.03;31.21;97564.34;5029043;28;20548;-29
2021/12/14 07:57:16;;;;;;;0.80;0.70;;;;;;;23.02;31.44;97560.88;5027769;28;20029;-29
2021/12/14 07:59:46;;;;;;;1.05;0.77;;;;;;;23.01;31.44;97551.31;5028002;28;20033;-28
2021/12/14 08:02:13;;;;;;;0.60;0.50;;;;;;;23.01;31.40;97545.22;5026746;28;20060;-30
2021/12/14 08:04:41;;;;;;;0.50;0.50;;;;;;;23.00;31.47;97544.38;5028578;28;20496;-30
2021/12/14 08:07:06;;;;;;;1.02;0.80;;;;;;;23.00;31.47;97554.84;5027434;28;20114;-28
2021/12/14 08:09:51;;;;;;;1.00;0.60;;;;;;;23.01;31.26;97556.53;5028255;28;20479;-29
2021/12/14 08:12:27;;;;;;;0.88;0.70;;;;;;;23.02;31.46;97557.38;5025631;28;20021;-29
2021/12/14 08:15:06;;;;;;;0.90;0.80;;;;;;;23.01;31.23;97568.75;5027736;28;20464;-28
2021/12/14 08:17:31;;;;;;;0.77;0.70;;;;;;;23.01;31.54;97579.19;5026173;28;20119;-27
2021/12/14 08:19:57;;;;;;;0.90;0.60;;;;;;;23.00;31.51;97574.88;5026344;28;20875;-30
2021/12/14 08:22:32;;;;;;;0.98;0.70;;;;;;;23.02;31.27;97584.38;5027576;28;20025;-31
2021/12/14 08:24:57;;;;;;;0.70;0.50;;;;;;;23.02;31.40;97593.97;5025957;28;20030;-27
2021/12/14 08:27:24;;;;;;;0.65;0.65;;;;;;;23.02;31.32;97599.22;5027076;28;20033;-29
2021/12/14 08:29:51;;;;;;;0.60;0.60;;;;;;;23.01;31.47;97600.97;5024865;28;20033;-33
2021/12/14 08:32:20;;;;;;;1.23;0.68;;;;;;;23.00;31.27;97596.66;5028549;28;20025;-29
2021/12/14 08:34:46;;;;;;;1.17;0.60;;;;;;;23.01;31.31;97598.38;5027897;28;20064;-31
2021/12/14 08:37:14;;;;;;;0.90;0.88;;;;;;;23.01;31.47;97592.28;5030283;28;20053;-29
2021/12/14 08:40:00;;;;;;;0.82;0.70;;;;;;;23.01;31.53;97597.50;5026464;28;21064;-30
2021/12/14 08:42:34;;;;;;;0.68;0.50;;;;;;;23.02;31.28;97591.38;5021706;28;20538;-28
2021/12/14 08:45:01;;;;;;;0.73;0.50;;;;;;;23.00;31.48;97583.59;5027510;28;20088;-26
2021/12/14 08:47:31;;;;;;;0.70;0.60;;;;;;;23.01;31.56;97597.50;5024104;28;20044;-27
2021/12/14 08:49:58;;;;;;;0.73;0.60;;;;;;;23.01;31.27;97602.72;5029161;28;20033;-31
2021/12/14 08:52:23;;;;;;;0.70;0.63;;;;;;;23.01;31.50;97587.91;5025855;28;20198;-31
2021/12/14 08:54:49;;;;;;;1.00;0.70;;;;;;;23.01;31.54;97587.03;5035789;28;20068;-27
2021/12/14 08:57:18;;;;;;;0.50;0.50;;;;;;;23.01;31.40;97582.69;5030091;28;20513;-28
2021/12/14 08:59:46;;;;;;;0.77;0.60;;;;;;;23.00;31.27;97582.72;5033850;28;20025;-30
2021/12/14 09:02:13;;;;;;;0.63;0.55;;;;;;;23.01;31.27;97576.59;5028938;28;20094;-28
2021/12/14 09:04:53;;;;;;;0.52;0.52;;;;;;;23.01;31.30;97573.97;5027801;28;20567;-30
2021/12/14 09:07:25;;;;;;;0.63;0.52;;;;;;;23.01;31.42;97566.13;5030348;28;20044;-25
2021/12/14 09:09:51;;;;;;;0.70;0.50;;;;;;;23.02;31.26;97573.06;5030983;28;20040;-31
2021/12/14 09:12:20;;;;;;;0.80;0.60;;;;;;;23.01;31.59;97576.59;5030263;28;20043;-28
2021/12/14 09:14:48;;;;;;;0.75;0.50;;;;;;;23.02;31.37;97583.53;5030191;28;20044;-30
2021/12/14 09:17:14;;;;;;;0.77;0.70;;;;;;;23.02;31.34;97578.28;5029070;28;20140;-30
2021/12/14 09:19:49;;;;;;;1.02;0.80;;;;;;;23.03;31.32;97585.25;5029713;28;20041;-30
2021/12/14 09:22:25;;;;;;;0.50;0.50;;;;;;;23.03;31.38;97593.94;5032072;28;20032;-32
2021/12/14 09:24:50;;;;;;;1.65;0.60;;;;;;;23.03;31.39;97590.50;5028065;28;20116;-28
2021/12/14 09:27:20;;;;;;;0.50;0.50;;;;;;;23.04;31.34;97602.66;5028883;28;20032;-29
2021/12/14 09:29:46;;;;;;;0.52;0.50;;;;;;;23.03;31.53;97599.16;5027818;28;20064;-30
2021/12/14 09:32:13;;;;;;;1.63;0.60;;;;;;;23.04;31.59;97595.69;5030403;28;20083;-28
2021/12/14 09:34:39;;;;;;;0.40;0.40;;;;;;;23.05;31.54;97597.38;5027234;28;20025;-28
2021/12/14 09:37:07;;;;;;;0.60;0.50;;;;;;;23.04;31.46;97593.06;5028045;28;20060;-30
2021/12/14 09:39:34;;;;;;;0.40;0.40;;;;;;;23.04;31.34;97586.97;5031156;28;20997;-29
2021/12/14 09:42:00;;;;;;;0.63;0.50;;;;;;;23.06;31.51;97588.63;5028680;28;20029;-30
2021/12/14 09:44:27;;;;;;;0.30;0.30;;;;;;;23.06;31.59;97586.00;5026704;28;20499;-30
2021/12/14 09:46:53;;;;;;;0.90;0.70;;;;;;;23.07;31.53;97584.28;5028334;28;20036;-30
2021/12/14 09:49:19;;;;;;;0.40;0.40;;;;;;;23.08;31.47;97588.59;5029096;28;20040;-28
2021/12/14 09:51:50;;;;;;;0.68;0.40;;;;;;;23.08;31.55;97593.81;5031623;28;20029;-28
2021/12/14 09:54:18;;;;;;;0.30;0.30;;;;;;;23.08;31.63;97601.66;5030773;28;20502;-31
2021/12/14 09:56:49;;;;;;;0.50;0.40;;;;;;;23.09;31.56;97598.13;5028096;28;20033;-30
2021/12/14 09:59:15;;;;;;;0.30;0.30;;;;;;;23.09;31.54;97590.28;5028344;28;20056;-29
2021/12/14 10:01:42;;;;;;;0.38;0.35;;;;;;;23.09;31.65;97585.06;5029459;28;20028;-31
2021/12/14 10:04:13;;;;;;;0.35;0.30;;;;;;;23.10;31.67;97592.00;5026032;28;20022;-28
2021/12/14 10:06:39;;;;;;;0.98;0.50;;;;;;;23.09;31.50;97585.06;5029273;28;20017;-27
2021/12/14 10:09:13;;;;;;;0.50;0.50;;;;;;;23.10;31.80;97586.78;5029744;28;20531;-29
2021/12/14 10:14:24;;;;;;;0.28;0.28;;;;;;;23.10;31.68;97605.94;5030525;28;20035;-30
2021/12/14 10:16:49;;;;;;;0.47;0.47;;;;;;;23.10;31.68;97597.22;5028088;28;20024;-34
2021/12/14 10:19:18;;;;;;;0.40;0.40;;;;;;;23.10;31.69;97592.00;5027640;28;20032;-29
2021/12/14 10:21:48;;;;;;;0.70;0.45;;;;;;;23.10;31.71;97587.63;5036942;28;20052;-31
2021/12/14 10:24:13;;;;;;;0.63;0.40;;;;;;;23.11;31.63;97588.50;5036432;28;20599;-29
2021/12/14 10:26:43;;;;;;;0.30;0.30;;;;;;;23.12;31.47;97595.44;5027077;28;20037;-30
2021/12/14 10:29:09;;;;;;;0.35;0.35;;;;;;;23.11;31.52;97578.06;5028854;28;20769;-28
2021/12/14 10:31:49;;;;;;;0.40;0.40;;;;;;;23.11;31.69;97583.28;5024845;28;20048;-29
2021/12/14 10:34:21;;;;;;;0.38;0.30;;;;;;;23.12;31.54;97589.34;5028882;28;20035;-30
2021/12/14 10:36:53;;;;;;;0.70;0.50;;;;;;;23.12;31.79;97587.59;5028631;28;20032;-32
2021/12/14 10:39:36;;;;;;;0.75;0.40;;;;;;;23.13;31.59;97585.81;5024038;28;20530;-30
2021/12/14 10:44:50;;;;;;;0.60;0.40;;;;;;;23.13;31.54;97573.63;5030118;28;20812;-27
2021/12/14 10:47:16;;;;;;;0.40;0.30;;;;;;;23.13;31.84;97571.00;5025460;28;20597;-27
2021/12/14 10:49:41;;;;;;;1.02;0.30;;;;;;;23.12;31.71;97574.53;5024372;28;20025;-31
2021/12/14 10:52:14;;;;;;;0.90;0.40;;;;;;;23.13;31.63;97578.84;5024166;28;20079;-28
2021/12/14 10:54:42;;;;;;;0.30;0.20;;;;;;;23.13;31.69;97572.75;5028542;28;20116;-31
2021/12/14 10:57:11;;;;;;;0.52;0.52;;;;;;;23.15;31.90;97589.25;5025923;28;20052;-28
2021/12/14 10:59:39;;;;;;;0.30;0.30;;;;;;;23.13;31.75;97586.69;5026346;28;20039;-32
2021/12/14 11:02:05;;;;;;;0.70;0.35;;;;;;;23.14;31.90;97585.78;5024925;28;20033;-32
2021/12/14 11:04:38;;;;;;;1.10;0.30;;;;;;;23.14;31.76;97583.16;5027557;28;20033;-29
2021/12/14 11:07:38;;;;;;;0.77;0.50;;;;;;;23.14;31.95;97582.34;5025333;28;20202;-29
2021/12/14 11:10:08;;;;;;;0.43;0.40;;;;;;;23.15;31.88;97574.41;5027910;28;20058;-32
2021/12/14 11:12:40;;;;;;;0.38;0.30;;;;;;;23.15;32.00;97577.03;5028531;28;20037;-29
2021/12/14 11:15:13;;;;;;;0.77;0.45;;;;;;;23.15;31.90;97577.03;5028108;28;20044;-32
2021/12/14 11:20:26;;;;;;;0.43;0.22;;;;;;;23.16;31.93;97570.94;5027899;28;20079;-30
2021/12/14 11:23:08;;;;;;;0.30;0.30;;;;;;;23.15;31.81;97574.41;5036769;28;20111;-27
2021/12/14 11:25:37;;;;;;;0.10;0.10;;;;;;;23.15;31.75;97574.41;5033901;28;20087;-31
2021/12/14 11:28:08;;;;;;;0.30;0.30;;;;;;;23.15;31.97;97584.88;5014258;28;20080;-28
2021/12/14 11:30:40;;;;;;;0.40;0.40;;;;;;;23.16;31.89;97568.31;5031983;28;20029;-32
2021/12/14 11:33:13;;;;;;;0.40;0.30;;;;;;;23.15;31.93;97569.19;5024338;28;20048;-31
2021/12/14 11:36:02;;;;;;;0.32;0.30;;;;;;;23.17;32.05;97561.31;5031136;28;20074;-29
2021/12/14 11:38:34;;;;;;;0.30;0.30;;;;;;;23.16;32.00;97568.31;5028394;28;20033;-30
2021/12/14 11:41:04;;;;;;;0.50;0.30;;;;;;;23.16;31.95;97570.06;5026728;28;20037;-30
2021/12/14 11:43:30;;;;;;;0.30;0.30;;;;;;;23.17;31.84;97575.25;5027373;28;20427;-29
2021/12/14 11:45:57;;;;;;;0.40;0.40;;;;;;;23.16;31.76;97578.75;5022704;28;20510;-30
2021/12/14 11:48:34;;;;;;;0.30;0.28;;;;;;;23.16;32.06;97581.38;5026677;28;20029;-31
2021/12/14 11:51:01;;;;;;;0.63;0.30;;;;;;;23.17;32.08;97580.47;5028541;28;20112;-33
2021/12/14 11:53:27;;;;;;;0.85;0.20;;;;;;;23.17;32.10;97575.25;5026310;28;20035;-26
2021/12/14 11:56:07;;;;;;;0.35;0.30;;;;;;;23.18;31.89;97573.50;5025976;28;22353;-30
2021/12/14 11:58:54;;;;;;;0.10;0.10;;;;;;;23.18;31.91;97566.50;5027101;28;20573;-32
2021/12/14 12:01:24;;;;;;;0.25;0.25;;;;;;;23.18;31.93;97569.09;5025295;28;20052;-29
2021/12/14 12:03:58;;;;;;;0.30;0.30;;;;;;;23.17;32.14;97556.94;5028478;28;20225;-31
2021/12/14 12:09:29;;;;;;;1.65;0.47;;;;;;;23.18;31.91;97548.19;4996406;28;20042;-32
2021/12/14 12:12:04;;;;;;;0.25;0.25;;;;;;;23.19;32.10;97554.28;5022827;28;20944;-29
2021/12/14 12:14:58;;;;;;;0.38;0.30;;;;;;;23.19;31.97;97543.81;5027193;28;20028;-29
2021/12/14 12:17:41;;;;;;;0.63;0.30;;;;;;;23.19;32.15;97544.66;5028267;28;20031;-27
2021/12/14 12:20:09;;;;;;;0.93;0.30;;;;;;;23.20;32.28;97541.16;5025787;28;20025;-30
2021/12/14 12:22:48;;;;;;;0.45;0.22;;;;;;;23.21;32.00;97544.63;5024779;28;20082;-28
2021/12/14 12:25:36;;;;;;;0.22;0.22;;;;;;;23.20;32.10;97545.53;5031246;28;20032;-29